sensor_id;sensor_type;location;lat;lon;timestamp;P1;durP1;ratioP1;P2;durP2;ratioP2
23175;SDS011;19910;42.652;23.332;2023-08-06T00:01:43;5.00;;;2.40;;
23175;SDS011;19910;42.652;23.332;2023-08-06T00:04:11;2.97;;;2.00;;
23175;SDS011;19910;42.652;23.332;2023-08-06T00:06:38;4.00;;;2.45;;
23175;SDS011;19910;42.652;23.332;2023-08-06T00:09:05;5.35;;;2.70;;
23175;SDS011;19910;42.652;23.332;2023-08-06T00:11:31;4.97;;;2.45;;
23175;SDS011;19910;42.652;23.332;2023-08-06T00:13:58;4.70;;;2.35;;
23175;SDS011;19910;42.652;23.332;2023-08-06T00:16:25;2.92;;;2.20;;
23175;SDS011;19910;42.652;23.332;2023-08-06T00:18:52;4.38;;;2.35;;
23175;SDS011;19910;42.652;23.332;2023-08-06T00:21:20;6.05;;;2.20;;
23175;SDS011;19910;42.652;23.332;2023-08-06T00:23:47;4.50;;;2.30;;
23175;SDS011;19910;42.652;23.332;2023-08-06T00:26:13;4.05;;;2.40;;
23175;SDS011;19910;42.652;23.332;2023-08-06T00:28:40;4.43;;;2.50;;
23175;SDS011;19910;42.652;23.332;2023-08-06T00:31:07;6.03;;;2.55;;
23175;SDS011;19910;42.652;23.332;2023-08-06T00:33:34;3.75;;;1.95;;
23175;SDS011;19910;42.652;23.332;2023-08-06T00:36:00;3.58;;;2.53;;
23175;SDS011;19910;42.652;23.332;2023-08-06T00:38:29;3.63;;;2.60;;
23175;SDS011;19910;42.652;23.332;2023-08-06T00:40:55;3.42;;;2.03;;
23175;SDS011;19910;42.652;23.332;2023-08-06T00:43:22;6.10;;;2.22;;
23175;SDS011;19910;42.652;23.332;2023-08-06T00:45:49;2.33;;;1.80;;
23175;SDS011;19910;42.652;23.332;2023-08-06T00:48:15;4.90;;;2.22;;
23175;SDS011;19910;42.652;23.332;2023-08-06T00:50:42;3.95;;;2.20;;
23175;SDS011;19910;42.652;23.332;2023-08-06T00:53:09;2.70;;;1.98;;
23175;SDS011;19910;42.652;23.332;2023-08-06T00:55:38;3.58;;;2.25;;
23175;SDS011;19910;42.652;23.332;2023-08-06T00:58:05;6.47;;;2.30;;
23175;SDS011;19910;42.652;23.332;2023-08-06T01:00:32;4.78;;;2.17;;
23175;SDS011;19910;42.652;23.332;2023-08-06T01:02:59;3.10;;;2.30;;
23175;SDS011;19910;42.652;23.332;2023-08-06T01:05:26;3.13;;;2.10;;
23175;SDS011;19910;42.652;23.332;2023-08-06T01:07:57;5.55;;;2.50;;
23175;SDS011;19910;42.652;23.332;2023-08-06T01:10:44;3.17;;;2.30;;
23175;SDS011;19910;42.652;23.332;2023-08-06T01:13:19;4.53;;;2.30;;
23175;SDS011;19910;42.652;23.332;2023-08-06T01:15:53;4.45;;;2.53;;
23175;SDS011;19910;42.652;23.332;2023-08-06T01:18:22;3.88;;;2.38;;
23175;SDS011;19910;42.652;23.332;2023-08-06T01:20:51;4.30;;;2.30;;
23175;SDS011;19910;42.652;23.332;2023-08-06T01:23:18;3.88;;;2.33;;
23175;SDS011;19910;42.652;23.332;2023-08-06T01:25:46;3.58;;;2.70;;
23175;SDS011;19910;42.652;23.332;2023-08-06T01:28:22;3.88;;;2.10;;
23175;SDS011;19910;42.652;23.332;2023-08-06T01:30:54;4.22;;;2.10;;
23175;SDS011;19910;42.652;23.332;2023-08-06T01:33:25;5.63;;;2.95;;
23175;SDS011;19910;42.652;23.332;2023-08-06T01:35:58;5.30;;;2.50;;
23175;SDS011;19910;42.652;23.332;2023-08-06T01:38:25;6.05;;;2.10;;
23175;SDS011;19910;42.652;23.332;2023-08-06T01:40:53;4.30;;;2.60;;
23175;SDS011;19910;42.652;23.332;2023-08-06T01:43:20;4.55;;;2.80;;
23175;SDS011;19910;42.652;23.332;2023-08-06T01:45:47;6.18;;;3.38;;
23175;SDS011;19910;42.652;23.332;2023-08-06T01:48:13;7.65;;;3.50;;
23175;SDS011;19910;42.652;23.332;2023-08-06T01:50:40;4.20;;;2.85;;
23175;SDS011;19910;42.652;23.332;2023-08-06T01:53:08;5.60;;;2.95;;
23175;SDS011;19910;42.652;23.332;2023-08-06T01:55:35;4.88;;;2.75;;
23175;SDS011;19910;42.652;23.332;2023-08-06T01:58:02;7.95;;;3.45;;
23175;SDS011;19910;42.652;23.332;2023-08-06T02:00:28;5.18;;;3.08;;
23175;SDS011;19910;42.652;23.332;2023-08-06T02:02:55;6.18;;;2.88;;
23175;SDS011;19910;42.652;23.332;2023-08-06T02:05:22;4.68;;;3.20;;
23175;SDS011;19910;42.652;23.332;2023-08-06T02:07:49;4.15;;;2.95;;
23175;SDS011;19910;42.652;23.332;2023-08-06T02:10:17;3.08;;;2.30;;
23175;SDS011;19910;42.652;23.332;2023-08-06T02:12:44;3.65;;;2.50;;
23175;SDS011;19910;42.652;23.332;2023-08-06T02:15:10;4.45;;;2.63;;
23175;SDS011;19910;42.652;23.332;2023-08-06T02:17:37;5.63;;;2.53;;
23175;SDS011;19910;42.652;23.332;2023-08-06T02:20:04;2.35;;;1.80;;
23175;SDS011;19910;42.652;23.332;2023-08-06T02:22:32;5.13;;;2.50;;
23175;SDS011;19910;42.652;23.332;2023-08-06T02:24:59;4.57;;;2.65;;
23175;SDS011;19910;42.652;23.332;2023-08-06T02:27:27;3.22;;;1.85;;
23175;SDS011;19910;42.652;23.332;2023-08-06T02:29:54;5.25;;;2.97;;
23175;SDS011;19910;42.652;23.332;2023-08-06T02:32:20;8.63;;;2.50;;
23175;SDS011;19910;42.652;23.332;2023-08-06T02:34:47;6.70;;;3.90;;
23175;SDS011;19910;42.652;23.332;2023-08-06T02:37:14;8.75;;;2.90;;
23175;SDS011;19910;42.652;23.332;2023-08-06T02:39:41;4.53;;;2.70;;
23175;SDS011;19910;42.652;23.332;2023-08-06T02:42:08;4.88;;;2.90;;
23175;SDS011;19910;42.652;23.332;2023-08-06T02:44:38;5.50;;;2.88;;
23175;SDS011;19910;42.652;23.332;2023-08-06T02:47:07;3.55;;;2.55;;
23175;SDS011;19910;42.652;23.332;2023-08-06T02:49:34;5.85;;;4.13;;
23175;SDS011;19910;42.652;23.332;2023-08-06T02:52:01;2.67;;;2.10;;
23175;SDS011;19910;42.652;23.332;2023-08-06T02:54:28;6.80;;;3.97;;
23175;SDS011;19910;42.652;23.332;2023-08-06T02:56:54;4.10;;;2.95;;
23175;SDS011;19910;42.652;23.332;2023-08-06T02:59:21;2.95;;;2.08;;
23175;SDS011;19910;42.652;23.332;2023-08-06T03:01:49;4.35;;;2.67;;
23175;SDS011;19910;42.652;23.332;2023-08-06T03:04:16;4.72;;;3.28;;
23175;SDS011;19910;42.652;23.332;2023-08-06T03:06:43;7.00;;;3.38;;
23175;SDS011;19910;42.652;23.332;2023-08-06T03:09:10;4.43;;;2.60;;
23175;SDS011;19910;42.652;23.332;2023-08-06T03:11:37;6.38;;;2.65;;
23175;SDS011;19910;42.652;23.332;2023-08-06T03:14:04;4.57;;;2.88;;
23175;SDS011;19910;42.652;23.332;2023-08-06T03:16:30;5.78;;;3.20;;
23175;SDS011;19910;42.652;23.332;2023-08-06T03:18:59;4.80;;;2.63;;
23175;SDS011;19910;42.652;23.332;2023-08-06T03:21:25;3.92;;;2.50;;
23175;SDS011;19910;42.652;23.332;2023-08-06T03:23:52;4.03;;;2.80;;
23175;SDS011;19910;42.652;23.332;2023-08-06T03:26:19;7.05;;;2.72;;
23175;SDS011;19910;42.652;23.332;2023-08-06T03:28:46;3.35;;;2.40;;
23175;SDS011;19910;42.652;23.332;2023-08-06T03:31:12;5.32;;;2.75;;
23175;SDS011;19910;42.652;23.332;2023-08-06T03:33:39;2.97;;;2.33;;
23175;SDS011;19910;42.652;23.332;2023-08-06T03:36:07;4.25;;;2.42;;
23175;SDS011;19910;42.652;23.332;2023-08-06T03:38:34;4.53;;;2.50;;
23175;SDS011;19910;42.652;23.332;2023-08-06T03:41:01;4.60;;;2.45;;
23175;SDS011;19910;42.652;23.332;2023-08-06T03:43:27;6.28;;;2.25;;
23175;SDS011;19910;42.652;23.332;2023-08-06T03:45:54;5.20;;;2.55;;
23175;SDS011;19910;42.652;23.332;2023-08-06T03:48:21;4.40;;;2.42;;
23175;SDS011;19910;42.652;23.332;2023-08-06T03:50:48;4.43;;;2.80;;
23175;SDS011;19910;42.652;23.332;2023-08-06T03:53:16;4.85;;;2.78;;
23175;SDS011;19910;42.652;23.332;2023-08-06T03:55:43;3.60;;;2.63;;
23175;SDS011;19910;42.652;23.332;2023-08-06T03:58:09;3.30;;;2.35;;
23175;SDS011;19910;42.652;23.332;2023-08-06T04:00:36;4.30;;;2.45;;
23175;SDS011;19910;42.652;23.332;2023-08-06T04:03:05;5.18;;;2.92;;
23175;SDS011;19910;42.652;23.332;2023-08-06T04:05:32;5.22;;;2.38;;
23175;SDS011;19910;42.652;23.332;2023-08-06T04:07:58;3.53;;;2.35;;
23175;SDS011;19910;42.652;23.332;2023-08-06T04:10:26;4.05;;;2.50;;
23175;SDS011;19910;42.652;23.332;2023-08-06T04:12:53;4.32;;;2.90;;
23175;SDS011;19910;42.652;23.332;2023-08-06T04:15:20;4.53;;;2.88;;
23175;SDS011;19910;42.652;23.332;2023-08-06T04:17:47;3.40;;;2.55;;
23175;SDS011;19910;42.652;23.332;2023-08-06T04:20:13;4.25;;;2.70;;
23175;SDS011;19910;42.652;23.332;2023-08-06T04:22:40;5.68;;;2.70;;
23175;SDS011;19910;42.652;23.332;2023-08-06T04:25:07;2.63;;;2.20;;
23175;SDS011;19910;42.652;23.332;2023-08-06T04:27:38;4.47;;;2.88;;
23175;SDS011;19910;42.652;23.332;2023-08-06T04:30:07;3.25;;;2.38;;
23175;SDS011;19910;42.652;23.332;2023-08-06T04:32:34;4.05;;;3.05;;
23175;SDS011;19910;42.652;23.332;2023-08-06T04:35:01;3.30;;;2.17;;
23175;SDS011;19910;42.652;23.332;2023-08-06T04:37:27;3.75;;;2.65;;
23175;SDS011;19910;42.652;23.332;2023-08-06T04:39:54;4.72;;;3.15;;
23175;SDS011;19910;42.652;23.332;2023-08-06T04:42:21;4.43;;;3.10;;
23175;SDS011;19910;42.652;23.332;2023-08-06T04:44:49;4.18;;;2.55;;
23175;SDS011;19910;42.652;23.332;2023-08-06T04:47:16;4.05;;;2.60;;
23175;SDS011;19910;42.652;23.332;2023-08-06T04:49:43;4.55;;;2.85;;
23175;SDS011;19910;42.652;23.332;2023-08-06T04:52:10;6.80;;;2.50;;
23175;SDS011;19910;42.652;23.332;2023-08-06T04:54:37;3.92;;;2.72;;
23175;SDS011;19910;42.652;23.332;2023-08-06T04:57:04;4.55;;;2.85;;
23175;SDS011;19910;42.652;23.332;2023-08-06T04:59:31;4.10;;;2.88;;
23175;SDS011;19910;42.652;23.332;2023-08-06T05:01:59;5.40;;;3.22;;
23175;SDS011;19910;42.652;23.332;2023-08-06T05:04:26;5.30;;;3.17;;
23175;SDS011;19910;42.652;23.332;2023-08-06T05:06:53;4.78;;;3.50;;
23175;SDS011;19910;42.652;23.332;2023-08-06T05:09:19;6.57;;;3.53;;
23175;SDS011;19910;42.652;23.332;2023-08-06T05:11:46;4.72;;;3.42;;
23175;SDS011;19910;42.652;23.332;2023-08-06T05:14:13;4.65;;;3.78;;
23175;SDS011;19910;42.652;23.332;2023-08-06T05:16:40;4.53;;;3.72;;
23175;SDS011;19910;42.652;23.332;2023-08-06T05:19:08;7.82;;;3.28;;
23175;SDS011;19910;42.652;23.332;2023-08-06T05:21:35;4.45;;;3.15;;
23175;SDS011;19910;42.652;23.332;2023-08-06T05:24:02;4.88;;;3.05;;
23175;SDS011;19910;42.652;23.332;2023-08-06T05:26:29;4.75;;;3.42;;
23175;SDS011;19910;42.652;23.332;2023-08-06T05:28:55;6.78;;;3.83;;
23175;SDS011;19910;42.652;23.332;2023-08-06T05:31:22;9.13;;;4.15;;
23175;SDS011;19910;42.652;23.332;2023-08-06T05:33:49;8.25;;;5.95;;
23175;SDS011;19910;42.652;23.332;2023-08-06T05:36:17;10.60;;;8.23;;
23175;SDS011;19910;42.652;23.332;2023-08-06T05:38:44;8.30;;;5.72;;
23175;SDS011;19910;42.652;23.332;2023-08-06T05:41:11;9.18;;;7.15;;
23175;SDS011;19910;42.652;23.332;2023-08-06T05:43:37;8.02;;;6.43;;
23175;SDS011;19910;42.652;23.332;2023-08-06T05:46:04;9.65;;;7.28;;
23175;SDS011;19910;42.652;23.332;2023-08-06T05:48:31;6.60;;;4.70;;
23175;SDS011;19910;42.652;23.332;2023-08-06T05:50:58;6.28;;;4.10;;
23175;SDS011;19910;42.652;23.332;2023-08-06T05:53:26;5.05;;;3.35;;
23175;SDS011;19910;42.652;23.332;2023-08-06T05:55:53;4.95;;;4.07;;
23175;SDS011;19910;42.652;23.332;2023-08-06T05:58:19;6.22;;;5.03;;
23175;SDS011;19910;42.652;23.332;2023-08-06T06:00:46;5.90;;;4.68;;
23175;SDS011;19910;42.652;23.332;2023-08-06T06:03:18;6.82;;;5.50;;
23175;SDS011;19910;42.652;23.332;2023-08-06T06:05:45;7.55;;;4.90;;
23175;SDS011;19910;42.652;23.332;2023-08-06T06:08:11;8.93;;;5.68;;
23175;SDS011;19910;42.652;23.332;2023-08-06T06:10:40;6.20;;;4.70;;
23175;SDS011;19910;42.652;23.332;2023-08-06T06:13:07;5.28;;;4.68;;
23175;SDS011;19910;42.652;23.332;2023-08-06T06:15:38;4.75;;;3.75;;
23175;SDS011;19910;42.652;23.332;2023-08-06T06:18:04;4.15;;;3.53;;
23175;SDS011;19910;42.652;23.332;2023-08-06T06:20:31;6.03;;;3.70;;
23175;SDS011;19910;42.652;23.332;2023-08-06T06:23:00;3.80;;;3.17;;
23175;SDS011;19910;42.652;23.332;2023-08-06T06:25:27;4.72;;;2.90;;
23175;SDS011;19910;42.652;23.332;2023-08-06T06:27:55;3.85;;;3.22;;
23175;SDS011;19910;42.652;23.332;2023-08-06T06:30:23;3.20;;;2.30;;
23175;SDS011;19910;42.652;23.332;2023-08-06T06:32:50;3.97;;;2.95;;
23175;SDS011;19910;42.652;23.332;2023-08-06T06:35:17;3.00;;;2.70;;
23175;SDS011;19910;42.652;23.332;2023-08-06T06:37:44;4.30;;;2.60;;
23175;SDS011;19910;42.652;23.332;2023-08-06T06:40:11;3.42;;;3.00;;
23175;SDS011;19910;42.652;23.332;2023-08-06T06:42:37;5.22;;;4.28;;
23175;SDS011;19910;42.652;23.332;2023-08-06T06:45:06;2.55;;;1.92;;
23175;SDS011;19910;42.652;23.332;2023-08-06T06:47:34;2.22;;;1.85;;
23175;SDS011;19910;42.652;23.332;2023-08-06T06:50:01;3.63;;;1.65;;
23175;SDS011;19910;42.652;23.332;2023-08-06T06:52:28;2.45;;;1.52;;
23175;SDS011;19910;42.652;23.332;2023-08-06T06:54:55;2.40;;;1.95;;
23175;SDS011;19910;42.652;23.332;2023-08-06T06:57:22;4.00;;;3.28;;
23175;SDS011;19910;42.652;23.332;2023-08-06T06:59:49;2.55;;;2.10;;
23175;SDS011;19910;42.652;23.332;2023-08-06T07:02:17;5.38;;;3.17;;
23175;SDS011;19910;42.652;23.332;2023-08-06T07:04:43;8.50;;;6.07;;
23175;SDS011;19910;42.652;23.332;2023-08-06T07:07:10;3.72;;;3.03;;
23175;SDS011;19910;42.652;23.332;2023-08-06T07:09:37;7.28;;;5.18;;
23175;SDS011;19910;42.652;23.332;2023-08-06T07:12:06;7.43;;;5.22;;
23175;SDS011;19910;42.652;23.332;2023-08-06T07:14:33;8.80;;;4.95;;
23175;SDS011;19910;42.652;23.332;2023-08-06T07:17:00;6.57;;;4.25;;
23175;SDS011;19910;42.652;23.332;2023-08-06T07:19:28;4.63;;;3.42;;
23175;SDS011;19910;42.652;23.332;2023-08-06T07:21:55;7.35;;;4.13;;
23175;SDS011;19910;42.652;23.332;2023-08-06T07:24:31;4.35;;;3.95;;
23175;SDS011;19910;42.652;23.332;2023-08-06T07:27:00;4.18;;;3.55;;
23175;SDS011;19910;42.652;23.332;2023-08-06T07:29:27;6.90;;;3.83;;
23175;SDS011;19910;42.652;23.332;2023-08-06T07:32:02;3.60;;;2.78;;
23175;SDS011;19910;42.652;23.332;2023-08-06T07:34:31;2.55;;;2.25;;
23175;SDS011;19910;42.652;23.332;2023-08-06T07:36:58;3.45;;;2.72;;
23175;SDS011;19910;42.652;23.332;2023-08-06T07:39:24;4.05;;;2.72;;
23175;SDS011;19910;42.652;23.332;2023-08-06T07:41:53;3.22;;;2.60;;
23175;SDS011;19910;42.652;23.332;2023-08-06T07:44:20;3.72;;;2.53;;
23175;SDS011;19910;42.652;23.332;2023-08-06T07:46:52;2.95;;;2.30;;
23175;SDS011;19910;42.652;23.332;2023-08-06T07:49:18;3.25;;;2.80;;
23175;SDS011;19910;42.652;23.332;2023-08-06T07:51:46;4.43;;;3.35;;
23175;SDS011;19910;42.652;23.332;2023-08-06T07:54:13;4.22;;;2.78;;
23175;SDS011;19910;42.652;23.332;2023-08-06T07:56:40;4.45;;;2.65;;
23175;SDS011;19910;42.652;23.332;2023-08-06T07:59:07;2.53;;;2.33;;
23175;SDS011;19910;42.652;23.332;2023-08-06T08:01:40;3.08;;;2.75;;
23175;SDS011;19910;42.652;23.332;2023-08-06T08:04:07;2.58;;;2.38;;
23175;SDS011;19910;42.652;23.332;2023-08-06T08:06:33;4.88;;;3.00;;
23175;SDS011;19910;42.652;23.332;2023-08-06T08:09:02;2.92;;;2.10;;
23175;SDS011;19910;42.652;23.332;2023-08-06T08:11:29;3.67;;;2.47;;
23175;SDS011;19910;42.652;23.332;2023-08-06T08:13:56;3.95;;;3.22;;
23175;SDS011;19910;42.652;23.332;2023-08-06T08:16:22;4.90;;;2.95;;
23175;SDS011;19910;42.652;23.332;2023-08-06T08:18:49;4.38;;;2.60;;
23175;SDS011;19910;42.652;23.332;2023-08-06T08:21:16;3.35;;;2.58;;
23175;SDS011;19910;42.652;23.332;2023-08-06T08:23:43;2.83;;;2.42;;
23175;SDS011;19910;42.652;23.332;2023-08-06T08:26:11;3.35;;;2.85;;
23175;SDS011;19910;42.652;23.332;2023-08-06T08:28:38;3.67;;;3.08;;
23175;SDS011;19910;42.652;23.332;2023-08-06T08:31:07;3.53;;;3.08;;
23175;SDS011;19910;42.652;23.332;2023-08-06T08:33:36;4.78;;;2.95;;
23175;SDS011;19910;42.652;23.332;2023-08-06T08:36:03;3.72;;;3.13;;
23175;SDS011;19910;42.652;23.332;2023-08-06T08:38:30;2.90;;;2.60;;
23175;SDS011;19910;42.652;23.332;2023-08-06T08:40:57;3.15;;;2.67;;
23175;SDS011;19910;42.652;23.332;2023-08-06T08:43:25;3.83;;;2.50;;
23175;SDS011;19910;42.652;23.332;2023-08-06T08:45:53;3.25;;;2.95;;
23175;SDS011;19910;42.652;23.332;2023-08-06T08:48:23;4.50;;;3.05;;
23175;SDS011;19910;42.652;23.332;2023-08-06T08:50:52;3.03;;;2.80;;
23175;SDS011;19910;42.652;23.332;2023-08-06T08:53:18;3.25;;;2.95;;
23175;SDS011;19910;42.652;23.332;2023-08-06T08:55:48;3.95;;;3.13;;
23175;SDS011;19910;42.652;23.332;2023-08-06T08:58:15;3.67;;;3.20;;
23175;SDS011;19910;42.652;23.332;2023-08-06T09:00:44;3.50;;;2.85;;
23175;SDS011;19910;42.652;23.332;2023-08-06T09:03:12;4.93;;;3.22;;
23175;SDS011;19910;42.652;23.332;2023-08-06T09:05:39;2.88;;;2.60;;
23175;SDS011;19910;42.652;23.332;2023-08-06T09:08:15;5.40;;;4.28;;
23175;SDS011;19910;42.652;23.332;2023-08-06T09:10:49;3.45;;;3.13;;
23175;SDS011;19910;42.652;23.332;2023-08-06T09:13:17;3.05;;;2.72;;
23175;SDS011;19910;42.652;23.332;2023-08-06T09:15:46;4.63;;;2.90;;
23175;SDS011;19910;42.652;23.332;2023-08-06T09:18:15;3.63;;;2.80;;
23175;SDS011;19910;42.652;23.332;2023-08-06T09:20:50;2.63;;;2.42;;
23175;SDS011;19910;42.652;23.332;2023-08-06T09:23:17;3.72;;;2.85;;
23175;SDS011;19910;42.652;23.332;2023-08-06T09:25:45;3.25;;;2.60;;
23175;SDS011;19910;42.652;23.332;2023-08-06T09:28:18;4.55;;;2.58;;
23175;SDS011;19910;42.652;23.332;2023-08-06T09:30:44;3.30;;;3.00;;
23175;SDS011;19910;42.652;23.332;2023-08-06T09:33:17;3.67;;;2.50;;
23175;SDS011;19910;42.652;23.332;2023-08-06T09:35:45;3.00;;;2.50;;
23175;SDS011;19910;42.652;23.332;2023-08-06T09:38:13;2.90;;;2.58;;
23175;SDS011;19910;42.652;23.332;2023-08-06T09:40:40;2.53;;;2.17;;
23175;SDS011;19910;42.652;23.332;2023-08-06T09:43:06;2.42;;;2.13;;
23175;SDS011;19910;42.652;23.332;2023-08-06T09:45:34;3.60;;;2.28;;
23175;SDS011;19910;42.652;23.332;2023-08-06T09:48:04;2.60;;;2.40;;
23175;SDS011;19910;42.652;23.332;2023-08-06T09:50:32;3.28;;;2.80;;
23175;SDS011;19910;42.652;23.332;2023-08-06T09:53:01;3.08;;;2.67;;
23175;SDS011;19910;42.652;23.332;2023-08-06T09:55:29;4.20;;;2.00;;
23175;SDS011;19910;42.652;23.332;2023-08-06T09:57:56;3.38;;;2.40;;
23175;SDS011;19910;42.652;23.332;2023-08-06T10:00:24;5.75;;;2.35;;
23175;SDS011;19910;42.652;23.332;2023-08-06T10:02:54;2.53;;;2.17;;
23175;SDS011;19910;42.652;23.332;2023-08-06T10:05:29;2.75;;;1.95;;
23175;SDS011;19910;42.652;23.332;2023-08-06T10:07:58;3.15;;;1.70;;
23175;SDS011;19910;42.652;23.332;2023-08-06T10:10:29;2.05;;;1.85;;
23175;SDS011;19910;42.652;23.332;2023-08-06T10:12:57;3.58;;;2.13;;
23175;SDS011;19910;42.652;23.332;2023-08-06T10:15:26;3.67;;;2.17;;
23175;SDS011;19910;42.652;23.332;2023-08-06T10:17:56;2.72;;;2.30;;
23175;SDS011;19910;42.652;23.332;2023-08-06T10:20:24;5.45;;;2.25;;
23175;SDS011;19910;42.652;23.332;2023-08-06T10:23:01;2.90;;;1.90;;
23175;SDS011;19910;42.652;23.332;2023-08-06T10:25:31;2.22;;;2.03;;
23175;SDS011;19910;42.652;23.332;2023-08-06T10:27:58;4.20;;;2.75;;
23175;SDS011;19910;42.652;23.332;2023-08-06T10:30:27;3.08;;;2.40;;
23175;SDS011;19910;42.652;23.332;2023-08-06T10:32:55;4.20;;;2.45;;
23175;SDS011;19910;42.652;23.332;2023-08-06T10:35:28;2.20;;;1.70;;
23175;SDS011;19910;42.652;23.332;2023-08-06T10:37:59;3.53;;;1.85;;
23175;SDS011;19910;42.652;23.332;2023-08-06T10:40:31;2.03;;;1.83;;
23175;SDS011;19910;42.652;23.332;2023-08-06T10:42:59;4.82;;;1.90;;
23175;SDS011;19910;42.652;23.332;2023-08-06T10:45:26;3.83;;;2.05;;
23175;SDS011;19910;42.652;23.332;2023-08-06T10:47:54;5.00;;;1.90;;
23175;SDS011;19910;42.652;23.332;2023-08-06T10:50:22;5.68;;;2.08;;
23175;SDS011;19910;42.652;23.332;2023-08-06T10:52:49;2.08;;;1.83;;
23175;SDS011;19910;42.652;23.332;2023-08-06T10:55:24;3.05;;;2.28;;
23175;SDS011;19910;42.652;23.332;2023-08-06T10:57:52;2.22;;;1.40;;
23175;SDS011;19910;42.652;23.332;2023-08-06T11:00:20;2.50;;;1.95;;
23175;SDS011;19910;42.652;23.332;2023-08-06T11:02:49;2.67;;;1.75;;
23175;SDS011;19910;42.652;23.332;2023-08-06T11:05:16;3.42;;;1.90;;
23175;SDS011;19910;42.652;23.332;2023-08-06T11:07:43;3.20;;;2.50;;
23175;SDS011;19910;42.652;23.332;2023-08-06T11:10:11;3.00;;;2.33;;
23175;SDS011;19910;42.652;23.332;2023-08-06T11:12:41;2.92;;;2.50;;
23175;SDS011;19910;42.652;23.332;2023-08-06T11:15:09;3.40;;;1.77;;
23175;SDS011;19910;42.652;23.332;2023-08-06T11:17:36;5.00;;;1.75;;
23175;SDS011;19910;42.652;23.332;2023-08-06T11:20:06;3.80;;;2.00;;
23175;SDS011;19910;42.652;23.332;2023-08-06T11:22:35;2.53;;;2.00;;
23175;SDS011;19910;42.652;23.332;2023-08-06T11:25:02;2.22;;;1.92;;
23175;SDS011;19910;42.652;23.332;2023-08-06T11:27:29;2.42;;;2.00;;
23175;SDS011;19910;42.652;23.332;2023-08-06T11:29:57;3.83;;;2.67;;
23175;SDS011;19910;42.652;23.332;2023-08-06T11:32:24;0.93;;;0.82;;
23175;SDS011;19910;42.652;23.332;2023-08-06T11:34:52;1.50;;;1.25;;
23175;SDS011;19910;42.652;23.332;2023-08-06T11:37:20;3.35;;;1.98;;
23175;SDS011;19910;42.652;23.332;2023-08-06T11:39:49;5.47;;;3.17;;
23175;SDS011;19910;42.652;23.332;2023-08-06T11:42:16;4.82;;;2.88;;
23175;SDS011;19910;42.652;23.332;2023-08-06T11:44:43;3.08;;;2.22;;
23175;SDS011;19910;42.652;23.332;2023-08-06T11:47:16;3.50;;;2.47;;
23175;SDS011;19910;42.652;23.332;2023-08-06T11:49:44;2.92;;;2.45;;
23175;SDS011;19910;42.652;23.332;2023-08-06T11:52:15;4.18;;;2.63;;
23175;SDS011;19910;42.652;23.332;2023-08-06T11:54:44;4.53;;;2.53;;
23175;SDS011;19910;42.652;23.332;2023-08-06T11:57:12;3.47;;;2.50;;
23175;SDS011;19910;42.652;23.332;2023-08-06T11:59:40;5.90;;;2.60;;
23175;SDS011;19910;42.652;23.332;2023-08-06T12:02:08;3.40;;;2.20;;
23175;SDS011;19910;42.652;23.332;2023-08-06T12:07:29;2.00;;;1.67;;
23175;SDS011;19910;42.652;23.332;2023-08-06T12:09:56;7.18;;;2.63;;
23175;SDS011;19910;42.652;23.332;2023-08-06T12:12:23;4.22;;;2.95;;
23175;SDS011;19910;42.652;23.332;2023-08-06T12:14:49;3.45;;;3.03;;
23175;SDS011;19910;42.652;23.332;2023-08-06T12:17:16;3.95;;;3.58;;
23175;SDS011;19910;42.652;23.332;2023-08-06T12:19:44;4.78;;;3.05;;
23175;SDS011;19910;42.652;23.332;2023-08-06T12:22:12;4.55;;;2.10;;
23175;SDS011;19910;42.652;23.332;2023-08-06T12:24:39;4.57;;;3.90;;
23175;SDS011;19910;42.652;23.332;2023-08-06T12:27:06;5.68;;;3.67;;
23175;SDS011;19910;42.652;23.332;2023-08-06T12:29:33;3.95;;;3.55;;
23175;SDS011;19910;42.652;23.332;2023-08-06T12:32:00;4.75;;;4.22;;
23175;SDS011;19910;42.652;23.332;2023-08-06T12:34:27;2.78;;;2.00;;
23175;SDS011;19910;42.652;23.332;2023-08-06T12:36:54;5.65;;;3.50;;
23175;SDS011;19910;42.652;23.332;2023-08-06T12:39:22;4.65;;;3.35;;
23175;SDS011;19910;42.652;23.332;2023-08-06T12:41:49;5.32;;;3.55;;
23175;SDS011;19910;42.652;23.332;2023-08-06T12:44:15;4.30;;;3.80;;
23175;SDS011;19910;42.652;23.332;2023-08-06T12:46:42;5.22;;;3.70;;
23175;SDS011;19910;42.652;23.332;2023-08-06T12:49:09;4.93;;;4.00;;
23175;SDS011;19910;42.652;23.332;2023-08-06T12:51:36;6.68;;;3.20;;
23175;SDS011;19910;42.652;23.332;2023-08-06T12:54:03;5.75;;;4.72;;
23175;SDS011;19910;42.652;23.332;2023-08-06T12:56:31;10.38;;;6.47;;
23175;SDS011;19910;42.652;23.332;2023-08-06T12:58:58;4.95;;;4.10;;
23175;SDS011;19910;42.652;23.332;2023-08-06T13:01:25;7.43;;;4.70;;
23175;SDS011;19910;42.652;23.332;2023-08-06T13:03:52;5.70;;;4.60;;
23175;SDS011;19910;42.652;23.332;2023-08-06T13:06:19;5.75;;;4.05;;
23175;SDS011;19910;42.652;23.332;2023-08-06T13:08:45;7.20;;;4.30;;
23175;SDS011;19910;42.652;23.332;2023-08-06T13:11:12;6.10;;;3.75;;
23175;SDS011;19910;42.652;23.332;2023-08-06T13:13:40;4.97;;;3.80;;
23175;SDS011;19910;42.652;23.332;2023-08-06T13:16:07;5.07;;;4.07;;
23175;SDS011;19910;42.652;23.332;2023-08-06T13:18:34;6.15;;;3.90;;
23175;SDS011;19910;42.652;23.332;2023-08-06T13:21:01;6.80;;;3.53;;
23175;SDS011;19910;42.652;23.332;2023-08-06T13:23:28;5.03;;;3.85;;
23175;SDS011;19910;42.652;23.332;2023-08-06T13:25:55;4.82;;;4.22;;
23175;SDS011;19910;42.652;23.332;2023-08-06T13:28:21;4.30;;;3.20;;
23175;SDS011;19910;42.652;23.332;2023-08-06T13:30:49;6.65;;;4.43;;
23175;SDS011;19910;42.652;23.332;2023-08-06T13:33:16;5.32;;;3.90;;
23175;SDS011;19910;42.652;23.332;2023-08-06T13:35:43;4.43;;;4.03;;
23175;SDS011;19910;42.652;23.332;2023-08-06T13:38:10;5.22;;;3.70;;
23175;SDS011;19910;42.652;23.332;2023-08-06T13:40:37;4.32;;;3.92;;
23175;SDS011;19910;42.652;23.332;2023-08-06T13:43:03;7.15;;;5.40;;
23175;SDS011;19910;42.652;23.332;2023-08-06T13:45:30;5.85;;;4.10;;
23175;SDS011;19910;42.652;23.332;2023-08-06T13:48:00;5.38;;;4.15;;
23175;SDS011;19910;42.652;23.332;2023-08-06T13:50:28;6.25;;;3.95;;
23175;SDS011;19910;42.652;23.332;2023-08-06T13:52:55;5.15;;;4.35;;
23175;SDS011;19910;42.652;23.332;2023-08-06T13:55:22;4.10;;;3.70;;
23175;SDS011;19910;42.652;23.332;2023-08-06T13:57:49;4.20;;;3.83;;
23175;SDS011;19910;42.652;23.332;2023-08-06T14:00:16;7.88;;;6.70;;
23175;SDS011;19910;42.652;23.332;2023-08-06T14:02:43;4.75;;;3.67;;
23175;SDS011;19910;42.652;23.332;2023-08-06T14:05:11;4.13;;;3.72;;
23175;SDS011;19910;42.652;23.332;2023-08-06T14:07:38;7.53;;;5.95;;
23175;SDS011;19910;42.652;23.332;2023-08-06T14:10:05;4.32;;;3.92;;
23175;SDS011;19910;42.652;23.332;2023-08-06T14:12:34;6.63;;;3.90;;
23175;SDS011;19910;42.652;23.332;2023-08-06T14:15:01;4.07;;;3.67;;
23175;SDS011;19910;42.652;23.332;2023-08-06T14:17:28;5.53;;;3.90;;
23175;SDS011;19910;42.652;23.332;2023-08-06T14:19:58;4.47;;;3.75;;
23175;SDS011;19910;42.652;23.332;2023-08-06T14:22:27;4.07;;;3.50;;
23175;SDS011;19910;42.652;23.332;2023-08-06T14:24:55;3.72;;;3.08;;
23175;SDS011;19910;42.652;23.332;2023-08-06T14:27:22;4.57;;;3.42;;
23175;SDS011;19910;42.652;23.332;2023-08-06T14:29:49;5.47;;;4.05;;
23175;SDS011;19910;42.652;23.332;2023-08-06T14:32:15;6.13;;;3.63;;
23175;SDS011;19910;42.652;23.332;2023-08-06T14:34:43;3.67;;;3.22;;
23175;SDS011;19910;42.652;23.332;2023-08-06T14:37:10;5.47;;;3.58;;
23175;SDS011;19910;42.652;23.332;2023-08-06T14:39:38;5.30;;;3.42;;